Time;durP1;ratioP1;P1;durP2;ratioP2;P2;SDS_P1;SDS_P2;PMS_P1;PMS_P2;Temp;Humidity;BMP_temperature;BMP_pressure;BME280_temperature;BME280_humidity;BME280_pressure;Samples;Min_cycle;Max_cycle;Signal;HPM_P1;HPM_P2
2022/05/03 00:00:44;;;;;;;35.00;16.38;;;9.80;99.90;;;;;;4996429;28;20023;-71
2022/05/03 00:03:19;;;;;;;37.35;18.20;;;9.80;99.90;;;;;;4996287;28;20029;-71
2022/05/03 00:06:09;;;;;;;33.33;17.30;;;9.80;99.90;;;;;;4995732;28;20073;-71
2022/05/03 00:08:43;;;;;;;38.75;18.73;;;9.80;99.90;;;;;;4995398;28;20037;-71
2022/05/03 00:11:15;;;;;;;33.45;21.50;;;9.80;99.90;;;;;;4994954;28;20473;-71
2022/05/03 00:13:58;;;;;;;31.65;20.42;;;9.80;99.90;;;;;;4995741;28;20065;-71
2022/05/03 00:16:26;;;;;;;37.17;20.75;;;9.80;99.90;;;;;;4995615;28;20536;-71
2022/05/03 00:18:52;;;;;;;42.63;21.23;;;9.90;99.90;;;;;;4995151;28;20026;-71
2022/05/03 00:21:18;;;;;;;38.78;23.23;;;9.90;99.90;;;;;;5010431;28;20027;-71
2022/05/03 00:23:44;;;;;;;34.75;22.67;;;9.90;99.90;;;;;;4995674;28;20418;-71
2022/05/03 00:26:10;;;;;;;47.50;26.17;;;9.90;99.90;;;;;;4994635;28;20042;-71
2022/05/03 00:28:38;;;;;;;44.28;24.35;;;9.90;99.90;;;;;;4994921;28;20031;-71
2022/05/03 00:31:04;;;;;;;42.13;26.13;;;9.90;99.90;;;;;;4994997;28;20027;-71
2022/05/03 00:33:33;;;;;;;45.53;27.35;;;9.90;99.90;;;;;;4995080;28;20019;-71
2022/05/03 00:35:59;;;;;;;47.90;29.77;;;9.90;99.90;;;;;;4994629;28;20033;-71
2022/05/03 00:38:24;;;;;;;58.35;29.35;;;10.00;99.90;;;;;;5009960;28;20074;-71
2022/05/03 00:40:56;;;;;;;55.95;33.20;;;10.00;99.90;;;;;;4994703;28;20394;-71
2022/05/03 00:43:30;;;;;;;61.65;31.92;;;10.00;99.90;;;;;;4994945;28;20489;-72
2022/05/03 00:46:02;;;;;;;66.07;37.08;;;10.00;99.90;;;;;;4995042;28;20096;-71
2022/05/03 00:48:46;;;;;;;67.40;39.70;;;10.00;99.90;;;;;;4994410;28;20026;-71
2022/05/03 00:51:16;;;;;;;75.30;37.70;;;10.00;99.90;;;;;;4995028;28;20030;-71
2022/05/03 00:54:13;;;;;;;67.45;37.25;;;10.00;99.90;;;;;;4994681;28;20018;-71
2022/05/03 00:56:48;;;;;;;70.32;35.90;;;10.00;99.90;;;;;;4985944;28;20034;-71
2022/05/03 00:59:35;;;;;;;60.55;33.28;;;10.00;99.90;;;;;;4994773;28;20037;-71
2022/05/03 01:02:04;;;;;;;59.20;32.90;;;10.00;99.90;;;;;;4994803;28;20057;-71
2022/05/03 01:05:03;;;;;;;53.35;27.85;;;10.00;99.90;;;;;;4994677;28;20092;-71
2022/05/03 01:07:34;;;;;;;47.00;22.88;;;9.90;99.90;;;;;;4994810;28;20381;-71
2022/05/03 01:10:05;;;;;;;43.17;22.73;;;9.90;99.90;;;;;;4994738;28;20027;-71
2022/05/03 01:12:56;;;;;;;43.40;23.90;;;9.90;99.90;;;;;;4999066;28;20026;-71
2022/05/03 01:15:31;;;;;;;43.00;19.45;;;9.90;99.90;;;;;;4999180;28;20022;-71
2022/05/03 01:18:24;;;;;;;35.28;20.80;;;9.80;99.90;;;;;;4999109;28;20023;-71
2022/05/03 01:21:09;;;;;;;39.65;19.73;;;9.80;99.90;;;;;;4998453;28;20582;-70
2022/05/03 01:23:52;;;;;;;30.75;18.38;;;9.70;99.90;;;;;;4998011;28;20045;-71
2022/05/03 01:26:32;;;;;;;39.67;19.02;;;9.70;99.90;;;;;;4998625;28;20490;-71
2022/05/03 01:29:28;;;;;;;43.38;19.88;;;9.70;99.90;;;;;;4998495;28;20038;-71
2022/05/03 01:31:59;;;;;;;40.92;20.20;;;9.60;99.90;;;;;;4998547;28;20018;-71
2022/05/03 01:34:26;;;;;;;35.45;17.90;;;9.60;99.90;;;;;;4997963;28;20022;-71
2022/05/03 01:37:03;;;;;;;30.98;18.23;;;9.60;99.90;;;;;;5013362;28;20026;-71
2022/05/03 01:39:54;;;;;;;40.95;17.95;;;9.60;99.90;;;;;;5012986;28;20037;-71
2022/05/03 01:42:23;;;;;;;29.85;17.13;;;9.60;99.90;;;;;;4997821;28;20113;-71
2022/05/03 01:45:07;;;;;;;33.13;18.42;;;9.60;99.90;;;;;;4998064;28;20537;-71
2022/05/03 01:48:00;;;;;;;25.63;16.77;;;9.50;99.90;;;;;;4998170;28;20106;-71
2022/05/03 01:50:47;;;;;;;32.47;16.77;;;9.60;99.90;;;;;;4997517;28;20102;-71
2022/05/03 01:53:28;;;;;;;29.25;16.42;;;9.50;99.90;;;;;;4997854;28;20438;-71
2022/05/03 01:56:24;;;;;;;26.50;15.23;;;9.50;99.90;;;;;;4997987;28;20023;-71
2022/05/03 01:59:06;;;;;;;37.13;14.35;;;9.50;99.90;;;;;;4998020;28;20126;-71
2022/05/03 02:01:41;;;;;;;27.98;10.63;;;9.50;99.90;;;;;;4997810;28;20117;-71
2022/05/03 02:04:37;;;;;;;31.52;10.50;;;9.50;99.90;;;;;;4997698;28;20100;-71
2022/05/03 02:07:15;;;;;;;34.30;9.98;;;9.40;99.90;;;;;;4997826;28;20500;-71
2022/05/03 02:10:07;;;;;;;33.83;9.23;;;9.40;99.90;;;;;;4997805;28;20026;-71
2022/05/03 02:12:33;;;;;;;37.22;9.30;;;9.40;99.90;;;;;;4997087;28;20026;-71
2022/05/03 02:15:06;;;;;;;27.33;8.63;;;9.30;99.90;;;;;;4997468;28;20030;-71
2022/05/03 02:17:53;;;;;;;29.00;8.27;;;9.30;99.90;;;;;;4997552;28;20054;-71
2022/05/03 02:20:38;;;;;;;32.28;7.57;;;9.20;99.90;;;;;;4997500;28;20030;-71
2022/05/03 02:23:29;;;;;;;20.02;6.90;;;9.10;99.90;;;;;;4996368;28;20093;-70
2022/05/03 02:26:12;;;;;;;34.38;6.85;;;9.10;99.90;;;;;;4999072;28;20030;-71
2022/05/03 02:28:51;;;;;;;39.88;7.95;;;9.00;99.90;;;;;;4997510;28;20470;-70
2022/05/03 02:31:30;;;;;;;29.83;7.85;;;9.00;99.90;;;;;;4996904;28;20038;-71
2022/05/03 02:34:07;;;;;;;33.25;8.63;;;8.90;99.90;;;;;;4997476;28;20060;-71
2022/05/03 02:36:41;;;;;;;38.40;7.45;;;8.90;99.90;;;;;;4997082;28;20105;-71
2022/05/03 02:39:09;;;;;;;37.80;8.00;;;8.80;99.90;;;;;;4996581;28;20038;-71
2022/05/03 02:41:39;;;;;;;31.65;6.57;;;8.80;99.90;;;;;;4997039;28;20121;-71
2022/05/03 02:44:05;;;;;;;24.85;6.13;;;8.70;99.90;;;;;;4997099;28;20054;-71
2022/05/03 02:47:01;;;;;;;25.35;6.32;;;8.70;99.90;;;;;;4997050;28;20034;-71
2022/05/03 02:49:54;;;;;;;24.63;5.68;;;8.80;99.90;;;;;;4996223;28;20524;-71
2022/05/03 02:52:42;;;;;;;33.95;6.65;;;8.70;99.90;;;;;;4996913;28;20036;-71
2022/05/03 02:55:20;;;;;;;23.00;5.28;;;8.70;99.90;;;;;;4997147;28;20101;-71
2022/05/03 02:58:18;;;;;;;36.60;5.53;;;8.60;99.90;;;;;;4996865;28;20490;-70
2022/05/03 03:04:08;;;;;;;36.20;5.85;;;8.50;99.90;;;;;;4996853;28;20037;-71
2022/05/03 03:06:37;;;;;;;24.27;5.60;;;8.50;99.90;;;;;;4996632;28;20034;-71
2022/05/03 03:09:04;;;;;;;31.10;5.47;;;8.50;99.90;;;;;;4996341;28;20019;-70
2022/05/03 03:11:45;;;;;;;36.42;7.22;;;8.40;99.90;;;;;;4995950;28;20100;-71
2022/05/03 03:14:31;;;;;;;35.25;5.82;;;8.40;99.90;;;;;;4996745;28;20488;-71
2022/05/03 03:17:07;;;;;;;29.98;5.80;;;8.40;99.90;;;;;;4996623;28;20026;-71
2022/05/03 03:19:51;;;;;;;22.38;4.90;;;8.30;99.90;;;;;;4996410;28;20022;-71
2022/05/03 03:22:19;;;;;;;;;;;8.20;99.90;;;;;;4996858;28;20085;-71
2022/05/03 03:24:49;;;;;;;28.15;6.00;;;8.20;99.90;;;;;;4995783;28;20033;-71
2022/05/03 03:27:14;;;;;;;19.83;5.30;;;8.10;99.90;;;;;;4996386;28;20110;-71
2022/05/03 03:29:42;;;;;;;29.67;6.32;;;8.10;99.90;;;;;;4996060;28;20105;-71
2022/05/03 03:32:09;;;;;;;22.60;5.68;;;8.10;99.90;;;;;;4996260;28;20130;-71
2022/05/03 03:34:37;;;;;;;24.80;5.07;;;8.10;99.90;;;;;;4995852;28;20026;-71
2022/05/03 03:37:06;;;;;;;28.35;5.50;;;8.00;99.90;;;;;;4995458;28;20038;-71
2022/05/03 03:39:32;;;;;;;30.25;5.88;;;8.00;99.90;;;;;;4995719;28;20030;-71
2022/05/03 03:42:02;;;;;;;32.42;5.60;;;7.90;99.90;;;;;;4995939;28;20022;-71
2022/05/03 03:44:29;;;;;;;30.42;5.50;;;7.90;99.90;;;;;;4996003;28;20036;-71
2022/05/03 03:46:55;;;;;;;40.40;6.35;;;7.90;99.90;;;;;;4996052;28;20037;-70
2022/05/03 03:49:20;;;;;;;31.80;5.93;;;7.90;99.90;;;;;;4995940;28;20030;-71
2022/05/03 03:51:47;;;;;;;42.80;7.55;;;7.80;99.90;;;;;;4995196;28;20022;-71
2022/05/03 03:54:13;;;;;;;39.20;5.57;;;7.70;99.90;;;;;;4995674;28;20363;-71
2022/05/03 03:56:39;;;;;;;37.72;5.90;;;7.60;99.90;;;;;;4995648;28;20019;-71
2022/05/03 03:59:05;;;;;;;37.40;6.45;;;7.60;99.90;;;;;;4995656;28;20112;-71
2022/05/03 04:01:31;;;;;;;43.83;6.55;;;7.50;99.90;;;;;;4995563;28;20073;-71
2022/05/03 04:03:58;;;;;;;39.83;7.00;;;7.50;99.90;;;;;;4995465;28;20029;-71
2022/05/03 04:06:24;;;;;;;42.53;5.10;;;7.50;99.90;;;;;;4994964;28;20030;-71
2022/05/03 04:08:49;;;;;;;27.48;5.45;;;7.50;99.90;;;;;;5010390;28;20026;-71
2022/05/03 04:11:18;;;;;;;41.67;6.13;;;7.50;99.90;;;;;;4995333;28;20022;-71
2022/05/03 04:13:45;;;;;;;50.30;6.13;;;7.40;99.90;;;;;;4995316;28;20022;-71
2022/05/03 04:16:11;;;;;;;37.33;5.30;;;7.50;99.90;;;;;;4994825;28;20034;-71
2022/05/03 04:18:46;;;;;;;43.00;6.70;;;7.40;99.90;;;;;;4995396;28;20030;-71
2022/05/03 04:21:18;;;;;;;32.15;5.45;;;7.30;99.90;;;;;;4995482;28;20108;-72
2022/05/03 04:23:45;;;;;;;46.30;5.82;;;7.10;99.90;;;;;;4994724;28;20097;-73
2022/05/03 04:26:11;;;;;;;24.30;4.75;;;7.00;99.90;;;;;;4995059;28;20030;-73
2022/05/03 04:28:39;;;;;;;36.13;5.07;;;6.90;99.90;;;;;;4994822;28;20059;-73
2022/05/03 04:31:05;;;;;;;26.70;5.15;;;6.80;99.90;;;;;;4995074;28;20025;-72
2022/05/03 04:33:31;;;;;;;41.63;5.38;;;6.80;99.90;;;;;;4994531;28;20426;-71
2022/05/03 04:35:57;;;;;;;21.27;4.15;;;6.90;99.90;;;;;;4995061;28;20026;-71
2022/05/03 04:38:23;;;;;;;42.25;5.25;;;6.80;99.90;;;;;;4994934;28;20027;-72
2022/05/03 04:40:48;;;;;;;24.77;4.28;;;6.70;99.90;;;;;;4994695;28;20397;-71
2022/05/03 04:43:14;;;;;;;20.60;4.03;;;6.70;99.90;;;;;;4994941;28;20026;-71
2022/05/03 04:45:39;;;;;;;21.88;3.97;;;6.80;99.90;;;;;;4994694;28;20034;-71
2022/05/03 04:48:06;;;;;;;25.02;4.57;;;6.70;99.90;;;;;;4994901;28;20038;-72
2022/05/03 04:50:31;;;;;;;20.17;3.55;;;6.70;99.90;;;;;;4995954;28;20026;-71
2022/05/03 04:52:57;;;;;;;22.63;4.05;;;6.70;99.90;;;;;;4995194;28;20153;-71
2022/05/03 04:55:23;;;;;;;27.08;3.85;;;6.70;99.90;;;;;;5009826;28;20098;-71
2022/05/03 04:57:49;;;;;;;32.47;4.93;;;6.80;99.90;;;;;;4994427;28;20109;-71
2022/05/03 05:00:15;;;;;;;40.97;4.65;;;6.80;99.90;;;;;;5009791;28;20040;-71
2022/05/03 05:02:41;;;;;;;20.00;3.42;;;6.80;99.90;;;;;;4995157;28;20023;-71
2022/05/03 05:05:07;;;;;;;35.50;5.82;;;6.90;99.90;;;;;;4994699;28;20389;-71
2022/05/03 05:07:33;;;;;;;23.35;3.63;;;6.90;99.90;;;;;;4994578;28;20050;-71
2022/05/03 05:12:42;;;;;;;;;;;6.90;99.90;;;;;;4995314;28;20497;-71
2022/05/03 05:15:08;;;;;;;47.20;5.53;;;6.90;99.90;;;;;;5009785;28;19906;-71
2022/05/03 05:17:34;;;;;;;35.50;5.22;;;7.00;99.90;;;;;;4994561;28;20449;-71
2022/05/03 05:19:59;;;;;;;28.85;4.55;;;7.00;99.90;;;;;;4993986;28;20022;-71
2022/05/03 05:22:25;;;;;;;25.90;4.70;;;7.00;99.90;;;;;;4994487;28;20062;-71
2022/05/03 05:24:51;;;;;;;19.63;4.28;;;7.10;99.90;;;;;;4994408;28;20105;-71
2022/05/03 05:27:17;;;;;;;38.05;5.10;;;7.20;99.90;;;;;;4994346;28;20474;-71
2022/05/03 05:29:43;;;;;;;29.60;4.78;;;7.20;99.90;;;;;;4994463;28;20501;-71
2022/05/03 05:32:09;;;;;;;24.70;4.10;;;7.20;99.90;;;;;;4994139;28;20022;-71
2022/05/03 05:34:35;;;;;;;45.60;5.30;;;7.30;99.90;;;;;;4994338;28;20026;-71
2022/05/03 05:37:00;;;;;;;23.48;3.35;;;7.30;99.90;;;;;;4994462;28;20018;-71
2022/05/03 05:39:26;;;;;;;29.50;5.07;;;7.40;99.90;;;;;;4994166;28;20034;-71
2022/05/03 05:41:59;;;;;;;26.77;3.92;;;7.50;99.90;;;;;;4995066;28;20479;-70
2022/05/03 05:44:30;;;;;;;36.53;4.88;;;7.60;99.90;;;;;;4993820;28;20457;-70
2022/05/03 05:46:56;;;;;;;26.15;4.50;;;7.70;99.90;;;;;;4994093;28;20030;-70
2022/05/03 05:49:22;;;;;;;31.25;4.10;;;7.80;99.90;;;;;;4994061;28;20038;-69
2022/05/03 05:51:48;;;;;;;34.70;6.07;;;7.90;99.90;;;;;;4994055;28;20544;-69
2022/05/03 05:54:16;;;;;;;32.97;5.40;;;8.00;99.90;;;;;;4994042;28;20022;-69
2022/05/03 05:56:42;;;;;;;35.88;5.00;;;8.20;99.90;;;;;;4996291;28;20018;-69
2022/05/03 05:59:07;;;;;;;28.10;5.03;;;8.40;99.90;;;;;;4997166;28;20367;-71
2022/05/03 06:01:40;;;;;;;33.85;4.82;;;8.50;99.90;;;;;;4997677;28;20026;-69
2022/05/03 06:04:06;;;;;;;44.80;4.70;;;8.60;99.90;;;;;;4997682;28;20074;-69
2022/05/03 06:06:35;;;;;;;28.98;4.72;;;8.70;99.90;;;;;;4997122;28;20053;-69
2022/05/03 06:09:04;;;;;;;31.23;5.40;;;8.70;99.90;;;;;;4997636;28;20080;-69
2022/05/03 06:11:29;;;;;;;33.33;5.15;;;8.60;99.90;;;;;;4997431;28;20034;-69
2022/05/03 06:13:55;;;;;;;40.22;4.57;;;8.60;99.90;;;;;;4997752;28;20053;-69
2022/05/03 06:16:21;;;;;;;30.17;5.00;;;8.60;99.90;;;;;;4997967;28;20470;-70
2022/05/03 06:18:46;;;;;;;33.30;3.95;;;8.40;99.90;;;;;;4997329;28;20390;-70
2022/05/03 06:21:12;;;;;;;29.42;4.47;;;8.50;99.90;;;;;;4997145;28;20386;-70
2022/05/03 06:23:38;;;;;;;37.58;4.10;;;8.60;99.90;;;;;;4997333;28;20038;-70
2022/05/03 06:26:05;;;;;;;21.67;2.85;;;8.70;99.90;;;;;;4997367;28;20026;-69
2022/05/03 06:28:32;;;;;;;36.05;3.67;;;8.80;99.90;;;;;;4997069;28;20372;-70
2022/05/03 06:30:57;;;;;;;43.90;4.95;;;8.70;99.90;;;;;;4996665;28;20454;-70
2022/05/03 06:33:23;;;;;;;27.10;4.30;;;8.70;99.90;;;;;;4997118;28;20061;-70
2022/05/03 06:35:49;;;;;;;30.98;4.78;;;8.80;99.90;;;;;;4997072;28;20097;-70
2022/05/03 06:38:15;;;;;;;25.77;4.18;;;8.90;99.90;;;;;;4997448;28;20066;-70
2022/05/03 06:40:41;;;;;;;26.65;4.03;;;9.10;99.90;;;;;;4996801;28;20038;-70
2022/05/03 06:43:07;;;;;;;32.95;4.45;;;9.20;99.90;;;;;;4996922;28;20088;-70
2022/05/03 06:45:32;;;;;;;37.65;5.60;;;9.40;99.90;;;;;;4996414;28;20026;-70
2022/05/03 06:48:00;;;;;;;35.33;5.07;;;9.70;99.90;;;;;;4995431;28;20045;-70
2022/05/03 06:50:26;;;;;;;32.83;5.50;;;9.80;99.90;;;;;;4996691;28;20022;-70
2022/05/03 06:52:54;;;;;;;25.25;4.65;;;9.90;99.90;;;;;;4996736;28;20025;-70
2022/05/03 06:55:20;;;;;;;33.45;4.20;;;10.00;99.90;;;;;;4996243;28;20105;-69
2022/05/03 06:57:45;;;;;;;29.13;3.95;;;9.80;99.90;;;;;;4996629;28;20068;-69
2022/05/03 07:00:11;;;;;;;29.02;4.30;;;9.80;99.90;;;;;;4996417;28;20484;-69
2022/05/03 07:02:37;;;;;;;23.27;4.78;;;9.60;99.90;;;;;;4996943;28;20074;-69
2022/05/03 07:05:04;;;;;;;21.08;3.83;;;9.70;99.90;;;;;;4996027;28;20026;-69
2022/05/03 07:07:30;;;;;;;26.30;3.75;;;9.70;99.90;;;;;;4996097;28;20026;-69
2022/05/03 07:09:56;;;;;;;20.38;3.80;;;9.70;99.90;;;;;;4996433;28;20027;-69
2022/05/03 07:12:22;;;;;;;22.75;3.83;;;9.60;99.90;;;;;;4996506;28;20586;-69
2022/05/03 07:14:48;;;;;;;36.83;4.63;;;9.40;99.90;;;;;;4997996;28;20030;-69
2022/05/03 07:22:45;;;;;;;24.23;3.60;;;9.60;99.90;;;;;;4997771;28;20022;-69
2022/05/03 07:22:46;;;;;;;26.63;4.05;;;10.30;99.90;;;;;;4996050;28;20077;-69
2022/05/03 07:25:12;;;;;;;20.60;3.55;;;10.60;99.90;;;;;;4996090;28;20038;-69
2022/05/03 07:27:38;;;;;;;24.77;5.13;;;10.70;99.90;;;;;;4995981;28;20081;-69
2022/05/03 07:30:04;;;;;;;24.77;3.72;;;10.60;99.90;;;;;;4995881;28;20487;-69
2022/05/03 07:32:29;;;;;;;23.70;4.43;;;10.30;99.90;;;;;;4995565;28;20023;-69
2022/05/03 07:34:55;;;;;;;29.60;5.20;;;10.30;99.90;;;;;;4996372;28;20081;-69
2022/05/03 07:37:21;;;;;;;29.10;3.97;;;10.00;99.90;;;;;;4995910;28;20364;-69
2022/05/03 07:39:46;;;;;;;27.02;4.22;;;10.30;99.90;;;;;;4995744;28;20398;-69
2022/05/03 07:42:12;;;;;;;28.52;4.85;;;10.80;99.90;;;;;;4995877;28;20030;-69
2022/05/03 07:44:37;;;;;;;29.73;4.97;;;11.10;99.90;;;;;;4995217;28;20046;-69
2022/05/03 07:47:03;;;;;;;25.80;4.20;;;11.50;99.90;;;;;;4995722;28;20023;-69
2022/05/03 07:49:29;;;;;;;27.15;3.55;;;12.00;99.90;;;;;;4995497;28;20035;-69
2022/05/03 07:51:55;;;;;;;24.58;5.25;;;12.00;99.90;;;;;;4995612;28;20037;-69
2022/05/03 07:54:20;;;;;;;15.98;3.72;;;11.80;99.90;;;;;;4995676;28;20029;-69
2022/05/03 07:56:46;;;;;;;23.42;4.32;;;11.60;99.90;;;;;;4995750;28;20034;-69
2022/05/03 07:59:12;;;;;;;30.92;4.97;;;11.40;99.90;;;;;;4994805;28;20089;-69
2022/05/03 08:01:40;;;;;;;27.23;4.28;;;11.40;99.90;;;;;;4995340;28;20035;-69
2022/05/03 08:04:06;;;;;;;27.83;4.78;;;11.50;99.90;;;;;;4995644;28;20030;-69
2022/05/03 08:06:32;;;;;;;25.92;4.30;;;11.60;99.90;;;;;;4995412;28;20036;-69
2022/05/03 08:08:57;;;;;;;24.98;5.05;;;12.00;99.90;;;;;;4995503;28;20109;-69
2022/05/03 08:11:24;;;;;;;24.77;4.10;;;12.60;99.90;;;;;;4994769;28;20081;-69
2022/05/03 08:13:52;;;;;;;20.08;3.72;;;12.80;99.90;;;;;;4995126;28;20483;-69
2022/05/03 08:16:20;;;;;;;31.27;4.85;;;12.90;99.90;;;;;;4995222;28;20078;-69
2022/05/03 08:18:46;;;;;;;23.20;5.80;;;12.70;99.90;;;;;;4994505;28;20053;-69
2022/05/03 08:21:11;;;;;;;23.02;4.47;;;12.40;99.90;;;;;;4994990;28;20035;-69
2022/05/03 08:23:38;;;;;;;24.45;4.20;;;12.20;99.90;;;;;;4995309;28;20022;-69
2022/05/03 08:26:05;;;;;;;25.83;4.57;;;12.00;99.90;;;;;;4995051;28;20023;-69
2022/05/03 08:28:30;;;;;;;21.13;4.32;;;12.30;99.90;;;;;;4994760;28;20034;-69
2022/05/03 08:30:57;;;;;;;36.20;4.03;;;12.10;99.90;;;;;;4994430;28;20113;-69
2022/05/03 08:33:22;;;;;;;25.85;4.30;;;11.80;99.90;;;;;;4994984;28;20383;-69
2022/05/03 08:35:48;;;;;;;34.47;5.45;;;11.80;99.90;;;;;;4995561;28;20030;-69
2022/05/03 08:43:45;;;;;;;24.48;4.13;;;12.60;99.90;;;;;;4995310;28;20493;-69
2022/05/03 08:46:11;;;;;;;28.05;4.68;;;12.20;99.90;;;;;;4994638;28;20027;-68
2022/05/03 08:48:40;;;;;;;34.53;5.13;;;12.30;99.90;;;;;;4994579;28;20029;-69
2022/05/03 08:51:08;;;;;;;25.98;4.47;;;12.40;99.90;;;;;;4994688;28;20078;-69
2022/05/03 08:53:35;;;;;;;27.88;4.93;;;12.40;99.90;;;;;;4995215;28;20033;-69
2022/05/03 08:56:00;;;;;;;32.58;4.10;;;12.60;99.90;;;;;;4994213;28;20022;-69
2022/05/03 08:58:26;;;;;;;22.25;4.43;;;13.10;99.90;;;;;;4994544;28;20034;-68
2022/05/03 09:00:52;;;;;;;23.90;3.80;;;13.10;99.90;;;;;;4994784;28;20038;-69
2022/05/03 09:03:17;;;;;;;25.88;5.00;;;12.80;99.90;;;;;;4994666;28;20026;-70
2022/05/03 09:05:43;;;;;;;19.63;3.78;;;12.80;99.90;;;;;;4994530;28;20041;-69
2022/05/03 09:08:10;;;;;;;39.28;6.63;;;12.70;99.90;;;;;;4994052;28;20030;-69
2022/05/03 09:10:39;;;;;;;39.58;7.22;;;12.90;99.90;;;;;;4994431;28;20030;-69
2022/05/03 09:13:22;;;;;;;19.40;4.30;;;13.10;99.90;;;;;;4994475;28;20026;-69
2022/05/03 09:15:56;;;;;;;23.02;3.72;;;13.30;99.90;;;;;;4994597;28;20021;-69
2022/05/03 09:18:27;;;;;;;22.30;3.92;;;13.60;99.90;;;;;;4994339;28;20085;-69
2022/05/03 09:23:50;;;;;;;22.48;3.97;;;13.60;99.90;;;;;;4994902;28;20057;-69
2022/05/03 09:26:17;;;;;;;15.70;3.53;;;13.90;99.90;;;;;;4994488;28;20058;-69
2022/05/03 09:28:46;;;;;;;18.42;3.78;;;14.20;99.90;;;;;;4993938;28;20027;-70
2022/05/03 09:31:13;;;;;;;22.88;4.22;;;14.30;99.90;;;;;;4995598;28;20096;-69
2022/05/03 09:33:39;;;;;;;22.58;3.78;;;13.90;99.90;;;;;;4998196;28;20034;-69
2022/05/03 09:36:11;;;;;;;20.55;3.53;;;14.00;99.90;;;;;;4998392;28;20015;-70
2022/05/03 09:38:47;;;;;;;19.58;3.45;;;14.20;99.90;;;;;;4999837;28;20033;-70
2022/05/03 09:41:15;;;;;;;17.40;4.20;;;14.10;99.90;;;;;;4999964;28;20022;-70
2022/05/03 09:44:07;;;;;;;30.25;4.50;;;13.60;99.90;;;;;;4998089;28;20489;-69
2022/05/03 09:46:52;;;;;;;13.32;3.08;;;13.60;99.90;;;;;;4997549;28;20130;-70
2022/05/03 09:49:20;;;;;;;27.02;4.32;;;14.10;99.90;;;;;;4996876;28;20368;-69
2022/05/03 09:51:48;;;;;;;16.13;3.05;;;14.30;99.90;;;;;;4997876;28;20510;-69
2022/05/03 09:54:14;;;;;;;26.60;4.47;;;14.20;99.90;;;;;;4997856;28;20018;-69
2022/05/03 09:56:41;;;;;;;22.95;3.65;;;14.40;99.90;;;;;;4997394;28;20076;-69
2022/05/03 09:59:08;;;;;;;15.43;4.65;;;14.50;99.90;;;;;;4996439;28;20031;-69
2022/05/03 10:01:35;;;;;;;19.38;3.47;;;14.40;99.90;;;;;;4997721;28;20022;-69
2022/05/03 10:04:01;;;;;;;20.13;3.40;;;14.50;99.90;;;;;;4997962;28;20026;-69
2022/05/03 10:06:29;;;;;;;23.20;4.50;;;14.40;99.90;;;;;;4997585;28;20517;-69
2022/05/03 10:08:56;;;;;;;15.95;3.47;;;14.50;99.90;;;;;;4996962;28;20033;-70
2022/05/03 10:11:26;;;;;;;19.10;4.20;;;14.60;99.90;;;;;;4997689;28;20049;-68
2022/05/03 10:13:53;;;;;;;22.40;3.78;;;14.80;99.90;;;;;;4996338;28;20022;-69
2022/05/03 10:22:00;;;;;;;20.50;4.50;;;14.50;99.90;;;;;;4997355;28;20442;-69
2022/05/03 10:24:26;;;;;;;22.70;3.80;;;15.10;99.90;;;;;;4997569;28;20478;-69
2022/05/03 10:26:52;;;;;;;12.55;3.42;;;15.30;99.90;;;;;;4997341;28;20042;-69
2022/05/03 10:29:18;;;;;;;14.15;3.63;;;14.70;99.90;;;;;;4997093;28;20090;-69
2022/05/03 10:32:05;;;;;;;15.00;3.88;;;14.60;99.90;;;;;;4996790;28;20495;-69
2022/05/03 10:34:46;;;;;;;17.35;3.47;;;15.00;99.90;;;;;;4997056;28;20080;-69
2022/05/03 10:37:16;;;;;;;20.80;3.20;;;15.50;99.90;;;;;;4997651;28;20463;-69
2022/05/03 10:39:57;;;;;;;34.05;3.80;;;15.20;99.90;;;;;;4996797;28;20026;-69
2022/05/03 10:42:27;;;;;;;19.48;3.63;;;14.80;99.90;;;;;;4996364;28;20069;-69
2022/05/03 10:44:53;;;;;;;20.98;4.13;;;14.70;99.90;;;;;;4985241;28;20791;-69
2022/05/03 10:47:20;;;;;;;17.13;3.22;;;15.10;99.90;;;;;;4986996;28;20034;-69
2022/05/03 10:50:17;;;;;;;20.92;3.03;;;14.50;99.90;;;;;;4983494;28;20491;-68
2022/05/03 10:53:05;;;;;;;13.05;3.08;;;14.50;99.90;;;;;;4982912;28;20030;-69
2022/05/03 10:56:01;;;;;;;18.42;3.05;;;15.00;99.90;;;;;;4996403;28;20084;-69
2022/05/03 10:58:32;;;;;;;15.48;3.60;;;15.60;99.90;;;;;;4984409;28;20057;-70
2022/05/03 11:01:05;;;;;;;21.63;3.60;;;16.20;99.90;;;;;;4985948;28;20076;-70
2022/05/03 11:03:32;;;;;;;15.55;3.40;;;16.30;99.90;;;;;;4992560;28;20105;-69
2022/05/03 11:06:27;;;;;;;24.95;4.50;;;15.60;99.90;;;;;;4990399;28;20070;-70
2022/05/03 11:08:59;;;;;;;21.17;3.90;;;15.30;99.90;;;;;;4987408;28;20057;-70
2022/05/03 11:11:43;;;;;;;20.58;3.75;;;15.70;99.90;;;;;;4981352;28;20023;-69
2022/05/03 11:14:15;;;;;;;11.25;2.47;;;16.20;99.90;;;;;;4988627;28;20030;-69
2022/05/03 11:16:51;;;;;;;20.25;4.38;;;16.20;99.90;;;;;;4986087;28;20058;-69
2022/05/03 11:19:21;;;;;;;16.00;3.38;;;16.00;99.90;;;;;;4985971;28;20053;-69
2022/05/03 11:21:48;;;;;;;15.93;3.30;;;15.60;99.90;;;;;;4992357;28;20375;-71
2022/05/03 11:24:25;;;;;;;29.05;3.95;;;15.40;99.90;;;;;;4983029;28;20034;-69
2022/05/03 11:27:02;;;;;;;16.83;3.00;;;15.10;99.90;;;;;;4992552;28;20034;-70
2022/05/03 11:29:34;;;;;;;17.52;3.35;;;14.90;99.90;;;;;;4981087;28;20031;-69
2022/05/03 11:32:01;;;;;;;22.88;3.60;;;14.60;99.90;;;;;;4981686;28;20041;-69
2022/05/03 11:34:27;;;;;;;25.63;3.55;;;14.60;99.90;;;;;;4984892;28;20076;-69
2022/05/03 11:36:53;;;;;;;20.92;3.63;;;14.90;99.90;;;;;;4984704;28;20046;-70
2022/05/03 11:39:19;;;;;;;19.17;4.85;;;14.90;99.90;;;;;;4986544;28;20034;-69
2022/05/03 11:41:46;;;;;;;20.38;3.70;;;14.70;99.90;;;;;;4987661;28;20364;-70
2022/05/03 11:44:12;;;;;;;23.50;3.50;;;14.50;99.90;;;;;;4986928;28;20037;-69
2022/05/03 11:46:39;;;;;;;16.40;3.67;;;15.10;99.90;;;;;;5007006;28;20490;-69
2022/05/03 11:49:07;;;;;;;19.15;4.00;;;15.80;99.90;;;;;;5014934;28;20030;-69
2022/05/03 11:57:11;;;;;;;17.23;3.50;;;16.10;99.90;;;;;;5015459;28;20120;-69
2022/05/03 11:59:41;;;;;;;21.30;4.13;;;16.30;99.90;;;;;;5015104;28;20105;-69
2022/05/03 12:02:20;;;;;;;13.82;2.80;;;17.00;99.90;;;;;;5016288;28;20787;-69
2022/05/03 12:05:12;;;;;;;18.20;3.58;;;17.20;99.90;;;;;;5016598;28;20037;-69
2022/05/03 12:07:38;;;;;;;16.95;4.25;;;16.80;99.90;;;;;;5014979;28;20026;-69
2022/05/03 12:10:19;;;;;;;22.08;3.28;;;17.00;99.90;;;;;;5014954;28;20496;-69
2022/05/03 12:12:46;;;;;;;14.25;3.58;;;17.30;99.90;;;;;;5014444;28;20478;-69
2022/05/03 12:15:13;;;;;;;22.67;3.25;;;17.50;99.90;;;;;;5014962;28;20105;-69
2022/05/03 12:17:56;;;;;;;17.88;4.22;;;17.70;99.90;;;;;;5015035;28;20103;-69
2022/05/03 12:20:22;;;;;;;24.52;3.42;;;18.00;99.90;;;;;;5014969;28;20022;-69
2022/05/03 12:23:10;;;;;;;17.85;3.60;;;17.80;99.90;;;;;;5014242;28;20025;-69
2022/05/03 12:25:37;;;;;;;15.73;3.58;;;17.60;99.90;;;;;;5014781;28;20054;-69
2022/05/03 12:28:04;;;;;;;15.38;3.17;;;17.60;99.90;;;;;;5014593;28;20029;-69
2022/05/03 12:30:31;;;;;;;22.05;4.00;;;17.40;99.90;;;;;;5014040;28;20030;-69
2022/05/03 12:33:07;;;;;;;10.32;2.42;;;17.70;99.90;;;;;;5014493;28;20026;-69
2022/05/03 12:35:35;;;;;;;18.48;3.03;;;18.10;99.90;;;;;;5014750;28;20029;-69
2022/05/03 12:38:27;;;;;;;16.20;2.65;;;18.10;99.90;;;;;;5014728;28;20429;-69
2022/05/03 12:40:56;;;;;;;15.00;3.03;;;18.80;99.90;;;;;;5012374;28;20074;-69
2022/05/03 12:43:23;;;;;;;19.48;3.45;;;18.50;99.90;;;;;;5014041;28;20072;-69
2022/05/03 12:45:55;;;;;;;12.75;2.42;;;18.20;99.90;;;;;;5014358;28;20112;-69
2022/05/03 12:48:20;;;;;;;14.35;3.53;;;17.90;99.90;;;;;;5014748;28;20025;-69
2022/05/03 12:50:46;;;;;;;18.92;2.72;;;17.10;99.90;;;;;;5014138;28;20022;-68
2022/05/03 12:53:15;;;;;;;9.77;2.78;;;16.90;99.90;;;;;;5014285;28;20474;-70
2022/05/03 12:55:40;;;;;;;14.65;2.97;;;16.60;99.90;;;;;;5014089;28;20022;-69
2022/05/03 13:00:54;;;;;;;;;;;17.80;99.90;;;;;;5014630;28;20080;-69
2022/05/03 13:03:23;;;;;;;15.48;3.05;;;18.30;99.90;;;;;;5014416;28;20053;-69
2022/05/03 13:05:49;;;;;;;21.00;4.53;;;18.60;99.90;;;;;;5013094;28;20083;-69
2022/05/03 13:08:16;;;;;;;17.60;3.33;;;18.80;99.90;;;;;;5014041;28;20026;-69
2022/05/03 13:10:42;;;;;;;23.50;3.35;;;18.30;99.90;;;;;;5014030;28;20471;-69
2022/05/03 13:13:08;;;;;;;25.95;3.88;;;18.30;99.90;;;;;;5014341;28;20037;-69
2022/05/03 13:15:34;;;;;;;17.75;3.45;;;18.70;99.90;;;;;;5013574;28;20014;-69
2022/05/03 13:18:00;;;;;;;14.65;3.33;;;18.50;99.90;;;;;;5014441;28;20041;-69
2022/05/03 13:20:27;;;;;;;14.88;3.17;;;18.40;99.90;;;;;;5014014;28;20493;-69
2022/05/03 13:22:54;;;;;;;31.15;4.47;;;18.80;99.90;;;;;;5013546;28;20026;-69
2022/05/03 13:25:20;;;;;;;22.13;4.10;;;19.00;99.90;;;;;;5014246;28;20394;-69
2022/05/03 13:27:46;;;;;;;12.82;3.22;;;19.00;99.90;;;;;;5014094;28;20034;-69
2022/05/03 13:30:12;;;;;;;16.73;3.17;;;18.70;99.90;;;;;;5014140;28;20026;-69